Time,TemperatureF,DewpointF,PressureIn,WindDirection,WindDirectionDegrees,WindSpeedMPH,WindSpeedGustMPH,Humidity,HourlyPrecipIn,Conditions,Clouds,dailyrainin,SolarRadiationWatts/m^2,SoftwareType,DateUTC
2013-06-15 00:02:00,69.0,63.0,29.74,North,360,6.0,-999.0,81,-99.99,,,-99.99,0.000000,,2013-06-15 05:02:00,
2013-06-15 00:12:00,68.0,62.0,29.74,North,360,4.0,-999.0,82,-99.99,,,-99.99,0.000000,,2013-06-15 05:12:00,
2013-06-15 00:22:00,68.0,62.0,29.74,North,360,4.0,-999.0,82,-99.99,,,-99.99,0.000000,,2013-06-15 05:22:00,
2013-06-15 00:34:00,68.0,63.0,29.74,North,360,3.0,-999.0,84,-99.99,,,-99.99,0.000000,,2013-06-15 05:34:00,
2013-06-15 00:42:00,67.0,62.0,29.75,North,360,4.0,-999.0,85,-99.99,,,-99.99,0.000000,,2013-06-15 05:42:00,
2013-06-15 00:52:00,67.0,62.0,29.75,North,360,4.0,-999.0,85,-99.99,,,-99.99,0.000000,,2013-06-15 05:52:00,
2013-06-15 01:02:00,67.0,63.0,29.75,North,360,4.0,-999.0,86,-99.99,,,-99.99,0.000000,,2013-06-15 06:02:00,
2013-06-15 01:12:00,67.0,63.0,29.75,North,360,2.0,-999.0,87,-99.99,,,-99.99,0.000000,,2013-06-15 06:12:00,
2013-06-15 01:24:00,67.0,63.0,29.75,North,360,2.0,-999.0,87,-99.99,,,-99.99,0.000000,,2013-06-15 06:24:00,
2013-06-15 01:33:00,66.0,62.0,29.76,SSE,153,4.0,-999.0,87,-99.99,,,-99.99,0.000000,,2013-06-15 06:33:00,
2013-06-15 01:43:00,66.0,62.0,29.77,SSE,149,6.0,-999.0,87,-99.99,,,-99.99,0.000000,,2013-06-15 06:43:00,
2013-06-15 01:53:00,66.0,62.0,29.77,SSE,149,6.0,-999.0,87,-99.99,,,-99.99,0.000000,,2013-06-15 06:53:00,
2013-06-15 02:01:00,66.0,62.0,29.77,SE,142,6.0,-999.0,87,-99.99,,,-99.99,0.000000,,2013-06-15 07:01:00,
2013-06-15 02:11:00,67.0,63.0,29.77,SSE,148,6.0,-999.0,87,-99.99,,,-99.99,0.000000,,2013-06-15 07:11:00,
2013-06-15 02:23:00,67.0,63.0,29.77,SSE,148,6.0,-999.0,87,-99.99,,,-99.99,0.000000,,2013-06-15 07:23:00,
2013-06-15 02:33:00,67.0,63.0,29.77,SSE,150,9.0,-999.0,86,-99.99,,,-99.99,0.000000,,2013-06-15 07:33:00,
2013-06-15 02:43:00,67.0,63.0,29.77,SSE,159,8.0,-999.0,87,-99.99,,,-99.99,0.000000,,2013-06-15 07:43:00,
2013-06-15 02:53:00,67.0,63.0,29.77,SSE,159,8.0,-999.0,87,-99.99,,,-99.99,0.000000,,2013-06-15 07:53:00,
2013-06-15 03:02:00,66.0,62.0,29.76,SSE,155,8.0,-999.0,87,-99.99,,,-99.99,0.000000,,2013-06-15 08:02:00,
2013-06-15 03:11:00,66.0,62.0,29.77,SSE,157,6.0,-999.0,88,-99.99,,,-99.99,0.000000,,2013-06-15 08:11:00,
2013-06-15 03:22:00,66.0,62.0,29.77,SSE,157,6.0,-999.0,88,-99.99,,,-99.99,0.000000,,2013-06-15 08:22:00,
2013-06-15 03:33:00,66.0,63.0,29.77,SSE,157,4.0,-999.0,89,-99.99,,,-99.99,0.000000,,2013-06-15 08:33:00,
2013-06-15 03:42:00,66.0,63.0,29.77,SSE,157,1.0,-999.0,89,-99.99,,,-99.99,0.000000,,2013-06-15 08:42:00,
2013-06-15 03:53:00,66.0,63.0,29.77,SSE,157,1.0,-999.0,89,-99.99,,,-99.99,0.000000,,2013-06-15 08:53:00,
2013-06-15 04:02:00,65.0,62.0,29.77,SSE,157,0.0,-999.0,89,-99.99,,,-99.99,0.000000,,2013-06-15 09:02:00,
2013-06-15 04:12:00,65.0,62.0,29.77,SSE,157,0.0,-999.0,89,-99.99,,,-99.99,0.000000,,2013-06-15 09:12:00,
2013-06-15 04:22:00,65.0,62.0,29.77,SSE,157,0.0,-999.0,90,-99.99,,,-99.99,0.000000,,2013-06-15 09:22:00,
2013-06-15 04:33:00,64.0,61.0,29.75,SSE,157,0.0,-999.0,90,-99.99,,,-99.99,0.000000,,2013-06-15 09:33:00,
2013-06-15 04:43:00,64.0,61.0,29.75,SSE,157,0.0,-999.0,90,-99.99,,,-99.99,0.000000,,2013-06-15 09:43:00,
2013-06-15 04:52:00,63.0,60.0,29.74,SSE,157,0.0,-999.0,91,-99.99,,,-99.99,0.000000,,2013-06-15 09:52:00,
2013-06-15 05:02:00,63.0,61.0,29.77,SSE,157,0.0,-999.0,92,-99.99,,,-99.99,0.000000,,2013-06-15 10:02:00,
2013-06-15 05:11:00,63.0,61.0,29.77,SSE,157,0.0,-999.0,92,-99.99,,,-99.99,0.000000,,2013-06-15 10:11:00,
2013-06-15 05:23:00,63.0,61.0,29.78,SSE,157,0.0,-999.0,93,-99.99,,,-99.99,0.000000,,2013-06-15 10:23:00,
2013-06-15 05:33:00,63.0,61.0,29.78,SSE,157,0.0,-999.0,93,-99.99,,,-99.99,0.000000,,2013-06-15 10:33:00,
2013-06-15 05:43:00,63.0,61.0,29.78,SSE,157,0.0,-999.0,93,-99.99,,,-99.99,0.000000,,2013-06-15 10:43:00,
2013-06-15 05:53:00,63.0,61.0,29.78,SSE,157,0.0,-999.0,93,-99.99,,,-99.99,0.000000,,2013-06-15 10:53:00,
2013-06-15 06:01:00,62.0,60.0,29.78,SSE,157,0.0,-999.0,93,-99.99,,,-99.99,11.000000,,2013-06-15 11:01:00,
2013-06-15 06:11:00,62.0,60.0,29.78,SSE,157,0.0,-999.0,93,-99.99,,,-99.99,11.000000,,2013-06-15 11:11:00,
2013-06-15 06:22:00,62.0,60.0,29.78,SSE,157,0.0,-999.0,93,-99.99,,,-99.99,23.000000,,2013-06-15 11:22:00,
2013-06-15 06:33:00,62.0,60.0,29.80,SSE,157,0.0,-999.0,93,-99.99,,,-99.99,32.000000,,2013-06-15 11:33:00,
2013-06-15 06:43:00,62.0,60.0,29.80,SSE,157,0.0,-999.0,93,-99.99,,,-99.99,32.000000,,2013-06-15 11:43:00,
2013-06-15 06:53:00,63.0,61.0,29.83,WSW,257,5.0,-999.0,93,-99.99,,,-99.99,56.000000,,2013-06-15 11:53:00,
2013-06-15 07:01:00,63.0,60.0,29.83,NW,311,6.0,-999.0,91,-99.99,,,-99.99,81.000000,,2013-06-15 12:01:00,
2013-06-15 07:11:00,63.0,60.0,29.83,NW,311,6.0,-999.0,91,-99.99,,,-99.99,81.000000,,2013-06-15 12:11:00,
2013-06-15 07:22:00,64.0,61.0,29.85,NW,317,8.0,-999.0,90,-99.99,,,-99.99,88.000000,,2013-06-15 12:22:00,
2013-06-15 07:33:00,65.0,59.0,29.84,North,360,7.0,-999.0,81,-99.99,,,-99.99,77.000000,,2013-06-15 12:33:00,
2013-06-15 07:43:00,65.0,59.0,29.84,North,360,7.0,-999.0,81,-99.99,,,-99.99,77.000000,,2013-06-15 12:43:00,
2013-06-15 07:52:00,65.0,58.0,29.83,NNW,340,8.0,-999.0,79,-99.99,,,-99.99,97.000000,,2013-06-15 12:52:00,
2013-06-15 08:02:00,65.0,58.0,29.82,NNW,336,6.0,-999.0,79,-99.99,,,-99.99,111.000000,,2013-06-15 13:02:00,
2013-06-15 08:11:00,65.0,58.0,29.82,NNW,336,6.0,-999.0,79,-99.99,,,-99.99,111.000000,,2013-06-15 13:11:00,
2013-06-15 08:22:00,65.0,58.0,29.81,NNW,344,6.0,-999.0,79,-99.99,,,-99.99,149.000000,,2013-06-15 13:22:00,
2013-06-15 08:32:00,66.0,58.0,29.81,North,5,6.0,-999.0,76,-99.99,,,-99.99,255.000000,,2013-06-15 13:32:00,
2013-06-15 08:43:00,66.0,58.0,29.81,North,5,6.0,-999.0,76,-99.99,,,-99.99,255.000000,,2013-06-15 13:43:00,
2013-06-15 08:53:00,67.0,58.0,29.84,North,355,4.0,-999.0,72,-99.99,,,-99.99,327.000000,,2013-06-15 13:53:00,
2013-06-15 09:01:00,67.0,58.0,29.84,North,355,4.0,-999.0,72,-99.99,,,-99.99,327.000000,,2013-06-15 14:01:00,
2013-06-15 09:12:00,68.0,57.0,29.84,North,355,4.0,-999.0,67,-99.99,,,-99.99,283.000000,,2013-06-15 14:12:00,
2013-06-15 09:22:00,68.0,54.0,29.85,NNW,345,7.0,-999.0,62,-99.99,,,-99.99,336.000000,,2013-06-15 14:22:00,
2013-06-15 09:34:00,68.0,54.0,29.85,NNW,345,7.0,-999.0,62,-99.99,,,-99.99,336.000000,,2013-06-15 14:34:00,
2013-06-15 09:43:00,70.0,54.0,29.87,North,355,6.0,-999.0,57,-99.99,,,-99.99,454.000000,,2013-06-15 14:43:00,
2013-06-15 09:53:00,71.0,54.0,29.86,North,360,4.0,-999.0,54,-99.99,,,-99.99,434.000000,,2013-06-15 14:53:00,
2013-06-15 10:02:00,71.0,54.0,29.86,North,360,4.0,-999.0,54,-99.99,,,-99.99,434.000000,,2013-06-15 15:02:00,
2013-06-15 10:11:00,72.0,54.0,29.86,North,360,2.0,-999.0,53,-99.99,,,-99.99,448.000000,,2013-06-15 15:11:00,
2013-06-15 10:22:00,72.0,54.0,29.87,North,360,4.0,-999.0,53,-99.99,,,-99.99,292.000000,,2013-06-15 15:22:00,
2013-06-15 10:33:00,72.0,54.0,29.87,North,360,4.0,-999.0,53,-99.99,,,-99.99,292.000000,,2013-06-15 15:33:00,
2013-06-15 10:43:00,72.0,54.0,29.87,North,360,2.0,-999.0,53,-99.99,,,-99.99,204.000000,,2013-06-15 15:43:00,
2013-06-15 10:53:00,72.0,55.0,29.87,North,360,2.0,-999.0,55,-99.99,,,-99.99,290.000000,,2013-06-15 15:53:00,
2013-06-15 11:01:00,72.0,55.0,29.87,North,360,2.0,-999.0,55,-99.99,,,-99.99,290.000000,,2013-06-15 16:01:00,
2013-06-15 11:11:00,73.0,54.0,29.87,North,360,0.0,-999.0,52,-99.99,,,-99.99,237.000000,,2013-06-15 16:11:00,
2013-06-15 11:22:00,72.0,52.0,29.85,North,360,2.0,-999.0,50,-99.99,,,-99.99,204.000000,,2013-06-15 16:22:00,
2013-06-15 11:33:00,72.0,52.0,29.85,North,360,2.0,-999.0,50,-99.99,,,-99.99,204.000000,,2013-06-15 16:33:00,
2013-06-15 11:43:00,72.0,54.0,29.84,North,360,2.0,-999.0,53,-99.99,,,-99.99,158.000000,,2013-06-15 16:43:00,
2013-06-15 11:53:00,71.0,54.0,29.85,North,9,3.0,-999.0,55,-99.99,,,-99.99,230.000000,,2013-06-15 16:53:00,
2013-06-15 12:02:00,71.0,54.0,29.85,North,9,3.0,-999.0,55,-99.99,,,-99.99,230.000000,,2013-06-15 17:02:00,
2013-06-15 12:12:00,72.0,53.0,29.84,North,360,4.0,-999.0,52,-99.99,,,-99.99,304.000000,,2013-06-15 17:12:00,
2013-06-15 12:21:00,73.0,54.0,29.84,North,360,2.0,-999.0,51,-99.99,,,-99.99,471.000000,,2013-06-15 17:21:00,
2013-06-15 12:32:00,73.0,54.0,29.84,North,360,2.0,-999.0,51,-99.99,,,-99.99,471.000000,,2013-06-15 17:32:00,
2013-06-15 12:43:00,73.0,53.0,29.85,North,9,3.0,-999.0,49,-99.99,,,-99.99,468.000000,,2013-06-15 17:43:00,
2013-06-15 12:52:00,73.0,52.0,29.86,North,360,4.0,-999.0,47,-99.99,,,-99.99,476.000000,,2013-06-15 17:52:00,
2013-06-15 13:01:00,73.0,52.0,29.86,North,360,4.0,-999.0,47,-99.99,,,-99.99,476.000000,,2013-06-15 18:01:00,
2013-06-15 13:12:00,74.0,52.0,29.86,North,360,2.0,-999.0,47,-99.99,,,-99.99,710.000000,,2013-06-15 18:12:00,
2013-06-15 13:22:00,74.0,52.0,29.86,North,360,2.0,-999.0,47,-99.99,,,-99.99,710.000000,,2013-06-15 18:22:00,
2013-06-15 13:32:00,76.0,53.0,29.86,North,360,2.0,-999.0,45,-99.99,,,-99.99,904.000000,,2013-06-15 18:32:00,
2013-06-15 13:43:00,77.0,53.0,29.86,North,360,1.0,-999.0,43,-99.99,,,-99.99,,,2013-06-15 18:43:00,
2013-06-15 13:53:00,79.0,51.0,29.86,North,360,1.0,-999.0,38,-99.99,,,-99.99,,,2013-06-15 18:53:00,
2013-06-15 14:01:00,79.0,51.0,29.86,North,360,1.0,-999.0,38,-99.99,,,-99.99,,,2013-06-15 19:01:00,
2013-06-15 14:11:00,78.0,47.0,29.85,NNE,13,3.0,-999.0,33,-99.99,,,-99.99,,,2013-06-15 19:11:00,
2013-06-15 14:22:00,78.0,47.0,29.85,NNE,13,3.0,-999.0,33,-99.99,,,-99.99,,,2013-06-15 19:22:00,
2013-06-15 14:33:00,79.0,47.0,29.85,North,11,2.0,-999.0,32,-99.99,,,-99.99,,,2013-06-15 19:33:00,
2013-06-15 14:43:00,79.0,46.0,29.84,North,5,3.0,-999.0,31,-99.99,,,-99.99,485.000000,,2013-06-15 19:43:00,
2013-06-15 14:52:00,79.0,46.0,29.84,North,5,3.0,-999.0,31,-99.99,,,-99.99,485.000000,,2013-06-15 19:52:00,
2013-06-15 15:02:00,78.0,44.0,29.84,NW,325,4.0,-999.0,30,-99.99,,,-99.99,422.000000,,2013-06-15 20:02:00,
2013-06-15 15:11:00,77.0,46.0,29.84,NW,325,3.0,-999.0,33,-99.99,,,-99.99,510.000000,,2013-06-15 20:11:00,
2013-06-15 15:22:00,77.0,46.0,29.84,NW,325,3.0,-999.0,33,-99.99,,,-99.99,510.000000,,2013-06-15 20:22:00,
2013-06-15 15:33:00,78.0,45.0,29.84,NW,325,2.0,-999.0,31,-99.99,,,-99.99,788.000000,,2013-06-15 20:33:00,
2013-06-15 15:43:00,80.0,47.0,29.84,NNW,340,4.0,-999.0,31,-99.99,,,-99.99,392.000000,,2013-06-15 20:43:00,
2013-06-15 15:52:00,80.0,47.0,29.84,NNW,340,4.0,-999.0,31,-99.99,,,-99.99,392.000000,,2013-06-15 20:52:00,
2013-06-15 16:01:00,79.0,46.0,29.83,NNW,335,2.0,-999.0,31,-99.99,,,-99.99,471.000000,,2013-06-15 21:01:00,
2013-06-15 16:11:00,78.0,46.0,29.83,NNW,336,2.0,-999.0,32,-99.99,,,-99.99,345.000000,,2013-06-15 21:11:00,
2013-06-15 16:22:00,78.0,46.0,29.83,NNW,336,2.0,-999.0,32,-99.99,,,-99.99,345.000000,,2013-06-15 21:22:00,
2013-06-15 16:33:00,78.0,46.0,29.83,NNW,336,1.0,-999.0,32,-99.99,,,-99.99,336.000000,,2013-06-15 21:33:00,
2013-06-15 16:42:00,79.0,45.0,29.83,NNW,333,1.0,-999.0,30,-99.99,,,-99.99,963.000000,,2013-06-15 21:42:00,
2013-06-15 16:52:00,79.0,45.0,29.83,NNW,333,1.0,-999.0,30,-99.99,,,-99.99,963.000000,,2013-06-15 21:52:00,
2013-06-15 17:01:00,81.0,47.0,29.82,NNW,331,2.0,-999.0,30,-99.99,,,-99.99,779.000000,,2013-06-15 22:01:00,
2013-06-15 17:11:00,80.0,47.0,29.82,NW,325,3.0,-999.0,31,-99.99,,,-99.99,758.000000,,2013-06-15 22:11:00,
2013-06-15 17:22:00,80.0,47.0,29.82,NW,325,3.0,-999.0,31,-99.99,,,-99.99,758.000000,,2013-06-15 22:22:00,
2013-06-15 17:32:00,81.0,47.0,29.81,WNW,292,3.0,-999.0,31,-99.99,,,-99.99,765.000000,,2013-06-15 22:32:00,
2013-06-15 17:42:00,80.0,46.0,29.81,WNW,302,7.0,-999.0,30,-99.99,,,-99.99,691.000000,,2013-06-15 22:42:00,
2013-06-15 17:53:00,80.0,46.0,29.81,WNW,302,7.0,-999.0,30,-99.99,,,-99.99,691.000000,,2013-06-15 22:53:00,
2013-06-15 18:02:00,81.0,47.0,29.80,West,276,6.0,-999.0,31,-99.99,,,-99.99,578.000000,,2013-06-15 23:02:00,
2013-06-15 18:11:00,80.0,45.0,29.80,WNW,286,4.0,-999.0,29,-99.99,,,-99.99,534.000000,,2013-06-15 23:11:00,
2013-06-15 18:22:00,80.0,45.0,29.80,WNW,286,4.0,-999.0,29,-99.99,,,-99.99,534.000000,,2013-06-15 23:22:00,
2013-06-15 18:33:00,80.0,44.0,29.80,North,360,8.0,-999.0,28,-99.99,,,-99.99,485.000000,,2013-06-15 23:33:00,
2013-06-15 18:42:00,80.0,44.0,29.79,NW,315,6.0,-999.0,28,-99.99,,,-99.99,443.000000,,2013-06-15 23:42:00,
2013-06-15 18:53:00,80.0,44.0,29.79,NW,315,6.0,-999.0,28,-99.99,,,-99.99,443.000000,,2013-06-15 23:53:00,
2013-06-15 19:01:00,80.0,44.0,29.79,NW,310,6.0,-999.0,28,-99.99,,,-99.99,394.000000,,2013-06-16 00:01:00,
2013-06-15 19:11:00,79.0,42.0,29.79,WNW,285,9.0,-999.0,27,-99.99,,,-99.99,345.000000,,2013-06-16 00:11:00,
2013-06-15 19:22:00,79.0,42.0,29.79,WNW,285,9.0,-999.0,27,-99.99,,,-99.99,345.000000,,2013-06-16 00:22:00,
2013-06-15 19:33:00,79.0,44.0,29.79,WNW,290,4.0,-999.0,29,-99.99,,,-99.99,287.000000,,2013-06-16 00:33:00,
2013-06-15 19:43:00,79.0,44.0,29.79,WNW,290,4.0,-999.0,29,-99.99,,,-99.99,287.000000,,2013-06-16 00:43:00,
2013-06-15 19:52:00,80.0,46.0,29.79,West,267,2.0,-999.0,30,-99.99,,,-99.99,239.000000,,2013-06-16 00:52:00,
2013-06-15 20:01:00,79.0,46.0,29.79,West,281,3.0,-999.0,31,-99.99,,,-99.99,181.000000,,2013-06-16 01:01:00,
2013-06-15 20:11:00,79.0,46.0,29.79,West,281,3.0,-999.0,31,-99.99,,,-99.99,181.000000,,2013-06-16 01:11:00,
2013-06-15 20:22:00,79.0,46.0,29.79,West,264,2.0,-999.0,31,-99.99,,,-99.99,130.000000,,2013-06-16 01:22:00,
2013-06-15 20:33:00,79.0,46.0,29.79,West,271,1.0,-999.0,31,-99.99,,,-99.99,83.000000,,2013-06-16 01:33:00,
2013-06-15 20:42:00,79.0,46.0,29.79,West,271,1.0,-999.0,31,-99.99,,,-99.99,83.000000,,2013-06-16 01:42:00,
2013-06-15 20:53:00,78.0,47.0,29.79,West,271,2.0,-999.0,33,-99.99,,,-99.99,49.000000,,2013-06-16 01:53:00,
2013-06-15 21:01:00,77.0,46.0,29.79,West,271,1.0,-999.0,34,-99.99,,,-99.99,23.000000,,2013-06-16 02:01:00,
2013-06-15 21:12:00,77.0,46.0,29.79,West,271,1.0,-999.0,34,-99.99,,,-99.99,23.000000,,2013-06-16 02:12:00,
2013-06-15 21:22:00,76.0,46.0,29.79,West,271,0.0,-999.0,35,-99.99,,,-99.99,12.000000,,2013-06-16 02:22:00,
2013-06-15 21:33:00,75.0,47.0,29.79,West,271,0.0,-999.0,37,-99.99,,,-99.99,5.000000,,2013-06-16 02:33:00,
2013-06-15 21:43:00,75.0,47.0,29.79,West,271,0.0,-999.0,37,-99.99,,,-99.99,5.000000,,2013-06-16 02:43:00,
2013-06-15 21:53:00,74.0,47.0,29.80,West,271,1.0,-999.0,39,-99.99,,,-99.99,0.000000,,2013-06-16 02:53:00,
2013-06-15 22:02:00,73.0,47.0,29.80,West,271,1.0,-999.0,40,-99.99,,,-99.99,0.000000,,2013-06-16 03:02:00,
2013-06-15 22:11:00,73.0,47.0,29.80,West,271,1.0,-999.0,40,-99.99,,,-99.99,0.000000,,2013-06-16 03:11:00,
2013-06-15 22:22:00,72.0,46.0,29.81,West,271,1.0,-999.0,40,-99.99,,,-99.99,0.000000,,2013-06-16 03:22:00,
2013-06-15 22:33:00,71.0,45.0,29.82,West,271,0.0,-999.0,40,-99.99,,,-99.99,0.000000,,2013-06-16 03:33:00,
2013-06-15 22:43:00,71.0,45.0,29.82,West,271,0.0,-999.0,40,-99.99,,,-99.99,0.000000,,2013-06-16 03:43:00,
2013-06-15 22:53:00,70.0,45.0,29.82,West,271,0.0,-999.0,41,-99.99,,,-99.99,0.000000,,2013-06-16 03:53:00,
2013-06-15 23:01:00,70.0,45.0,29.83,West,271,2.0,-999.0,41,-99.99,,,-99.99,0.000000,,2013-06-16 04:01:00,
2013-06-15 23:12:00,70.0,45.0,29.83,West,271,2.0,-999.0,41,-99.99,,,-99.99,0.000000,,2013-06-16 04:12:00,
2013-06-15 23:23:00,70.0,45.0,29.83,West,271,2.0,-999.0,41,-99.99,,,-99.99,0.000000,,2013-06-16 04:23:00,
2013-06-15 23:33:00,70.0,46.0,29.83,West,271,3.0,-999.0,42,-99.99,,,-99.99,0.000000,,2013-06-16 04:33:00,
2013-06-15 23:42:00,70.0,46.0,29.83,West,271,3.0,-999.0,42,-99.99,,,-99.99,0.000000,,2013-06-16 04:42:00,
2013-06-15 23:53:00,69.0,45.0,29.83,West,271,2.0,-999.0,42,-99.99,,,-99.99,0.000000,,2013-06-16 04:53:00,